createdAt,value
2023-06-07T00:00:08.093Z,40.02
2023-06-07T00:03:01.591Z,40.07
2023-06-07T00:05:32.592Z,40.12
2023-06-07T00:07:59.827Z,40.15
2023-06-07T00:10:26.962Z,40.21
2023-06-07T00:12:54.720Z,40.10
2023-06-07T00:15:21.782Z,40.17
2023-06-07T00:17:49.063Z,40.24
2023-06-07T00:20:16.679Z,40.32
2023-06-07T00:22:45.022Z,40.39
2023-06-07T00:25:12.894Z,40.44
2023-06-07T00:27:40.381Z,40.67
2023-06-07T00:30:09.364Z,40.70
2023-06-07T00:32:36.472Z,40.77
2023-06-07T00:35:03.648Z,40.92
2023-06-07T00:37:31.493Z,41.06
2023-06-07T00:39:59.612Z,41.07
2023-06-07T00:42:27.048Z,41.00
2023-06-07T00:44:54.157Z,41.21
2023-06-07T00:47:21.768Z,41.46
2023-06-07T00:49:49.878Z,41.34
2023-06-07T00:52:17.112Z,41.44
2023-06-07T00:54:45.185Z,41.40
2023-06-07T00:57:15.049Z,41.64
2023-06-07T00:59:42.765Z,41.69
2023-06-07T01:02:09.984Z,41.69
2023-06-07T01:05:18.901Z,41.90
2023-06-07T01:07:49.686Z,41.92
2023-06-07T01:10:17.436Z,42.00
2023-06-07T01:12:46.167Z,41.97
2023-06-07T01:15:14.797Z,41.95
2023-06-07T01:17:45.720Z,42.05
2023-06-07T01:20:15.769Z,41.91
2023-06-07T01:22:46.853Z,41.72
2023-06-07T01:25:14.278Z,41.79
2023-06-07T01:27:45.015Z,41.68
2023-06-07T01:30:15.742Z,41.71
2023-06-07T01:32:45.066Z,41.67
2023-06-07T01:35:13.862Z,41.93
2023-06-07T01:37:41.961Z,42.15
2023-06-07T01:40:11.315Z,42.43
2023-06-07T01:42:39.184Z,42.55
2023-06-07T01:45:08.434Z,42.84
2023-06-07T01:47:36.182Z,43.07
2023-06-07T01:50:03.562Z,43.21
2023-06-07T01:52:31.046Z,43.43
2023-06-07T01:54:58.640Z,43.55
2023-06-07T01:57:35.951Z,43.85
2023-06-07T02:00:13.305Z,43.95
2023-06-07T02:02:48.713Z,44.11
2023-06-07T02:05:21.524Z,44.28
2023-06-07T02:07:52.314Z,44.30
2023-06-07T02:10:22.561Z,44.34
2023-06-07T02:12:52.009Z,44.43
2023-06-07T02:15:19.445Z,44.57
2023-06-07T02:17:59.276Z,44.84
2023-06-07T02:20:27.692Z,44.89
2023-06-07T02:22:55.381Z,45.07
2023-06-07T02:25:22.706Z,45.04
2023-06-07T02:27:50.877Z,45.19
2023-06-07T02:30:18.224Z,45.10
2023-06-07T02:32:46.478Z,45.20
2023-06-07T02:35:14.468Z,45.21
2023-06-07T02:37:41.776Z,45.51
2023-06-07T02:40:11.728Z,45.50
2023-06-07T02:42:39.191Z,45.68
2023-06-07T02:45:06.710Z,45.67
2023-06-07T02:47:34.150Z,45.85
2023-06-07T02:50:02.413Z,45.98
2023-06-07T02:52:31.172Z,46.02
2023-06-07T02:54:58.308Z,46.18
2023-06-07T02:57:25.523Z,46.29
2023-06-07T02:59:54.077Z,46.45
2023-06-07T03:02:24.405Z,46.46
2023-06-07T03:04:52.573Z,46.44
2023-06-07T03:07:21.434Z,46.50
2023-06-07T03:09:49.757Z,46.46
2023-06-07T03:12:18.500Z,46.50
2023-06-07T03:14:49.333Z,46.60
2023-06-07T03:17:18.427Z,46.44
2023-06-07T03:19:49.947Z,46.49
2023-06-07T03:22:18.200Z,46.57
2023-06-07T03:24:46.170Z,46.64
2023-06-07T03:27:14.309Z,46.73
2023-06-07T03:29:41.674Z,46.70
2023-06-07T03:32:10.559Z,46.59
2023-06-07T03:34:39.103Z,46.65
2023-06-07T03:37:07.114Z,46.56
2023-06-07T03:39:34.870Z,46.47
2023-06-07T03:42:02.180Z,46.46
2023-06-07T03:44:29.529Z,46.28
2023-06-07T03:46:57.107Z,46.28
2023-06-07T03:49:24.975Z,46.23
2023-06-07T03:51:52.419Z,46.24
2023-06-07T03:54:19.624Z,46.13
2023-06-07T03:56:48.353Z,46.02
2023-06-07T03:59:16.574Z,46.03
2023-06-07T04:01:43.810Z,46.01
2023-06-07T04:04:12.197Z,45.96
2023-06-07T04:06:40.921Z,46.09
2023-06-07T04:09:09.445Z,45.85
2023-06-07T04:11:36.778Z,45.94
2023-06-07T04:14:04.304Z,45.53
2023-06-07T04:16:32.415Z,45.34
2023-06-07T04:19:02.400Z,45.48
2023-06-07T04:21:32.138Z,45.45
2023-06-07T04:23:59.441Z,45.34
2023-06-07T04:26:27.257Z,45.11
2023-06-07T04:28:57.711Z,45.05
2023-06-07T04:31:30.954Z,45.09
2023-06-07T04:34:02.688Z,44.70
2023-06-07T04:36:32.090Z,44.76
2023-06-07T04:39:02.204Z,44.75
2023-06-07T04:41:34.345Z,44.65
2023-06-07T04:44:04.698Z,44.41
2023-06-07T04:46:36.130Z,44.43
2023-06-07T04:49:03.372Z,44.37
2023-06-07T04:51:31.355Z,44.58
2023-06-07T04:53:59.787Z,44.25
2023-06-07T04:56:28.809Z,43.96
2023-06-07T04:58:58.008Z,43.80
2023-06-07T05:01:26.730Z,43.61
2023-06-07T05:04:02.331Z,43.31
2023-06-07T05:06:38.631Z,42.69
2023-06-07T05:09:08.034Z,42.18
2023-06-07T05:11:35.761Z,42.17
2023-06-07T05:14:03.409Z,41.71
2023-06-07T05:16:33.782Z,41.17
2023-06-07T05:19:02.119Z,40.73
2023-06-07T05:21:30.010Z,40.47
2023-06-07T05:23:57.573Z,40.27
2023-06-07T05:26:26.580Z,40.26
2023-06-07T05:28:53.912Z,39.75
2023-06-07T05:31:21.980Z,39.23
2023-06-07T05:33:49.486Z,38.39
2023-06-07T05:36:18.066Z,37.55
2023-06-07T05:38:46.585Z,37.13
2023-06-07T05:41:13.867Z,36.86
2023-06-07T05:43:43.511Z,36.39
2023-06-07T05:46:11.072Z,35.87
2023-06-07T05:48:39.125Z,35.42
2023-06-07T05:51:08.917Z,34.66
2023-06-07T05:53:36.544Z,34.28
2023-06-07T05:56:04.019Z,33.24
2023-06-07T05:58:32.613Z,31.54
2023-06-07T06:01:00.312Z,30.01
2023-06-07T06:03:27.483Z,28.43
2023-06-07T06:05:56.454Z,27.08
2023-06-07T06:08:23.789Z,25.76
2023-06-07T06:10:51.260Z,25.11
2023-06-07T06:13:18.394Z,23.96
2023-06-07T06:15:45.765Z,23.38
2023-06-07T06:18:12.979Z,22.67
2023-06-07T06:20:40.187Z,22.09
2023-06-07T06:23:08.519Z,21.37
2023-06-07T06:25:38.144Z,20.63
2023-06-07T06:28:05.639Z,20.34
2023-06-07T06:30:32.945Z,19.68
2023-06-07T06:33:01.261Z,18.85
2023-06-07T06:35:29.780Z,18.63
2023-06-07T06:37:57.435Z,17.95
2023-06-07T06:40:24.953Z,17.26
2023-06-07T06:42:52.376Z,16.46
2023-06-07T06:45:27.545Z,15.78
2023-06-07T06:47:54.888Z,15.26
2023-06-07T06:50:32.738Z,15.13
2023-06-07T06:53:01.591Z,14.76
2023-06-07T06:55:28.890Z,14.18
2023-06-07T06:57:56.316Z,14.01
2023-06-07T07:00:26.170Z,14.07
2023-06-07T07:02:53.773Z,13.49
2023-06-07T07:05:21.472Z,13.34
2023-06-07T07:07:48.908Z,13.02
2023-06-07T07:10:16.606Z,12.60
2023-06-07T07:12:44.221Z,12.57
2023-06-07T07:15:12.988Z,12.00
2023-06-07T07:17:46.389Z,11.66
2023-06-07T07:20:15.101Z,12.04
2023-06-07T07:22:42.679Z,12.32
2023-06-07T07:25:11.413Z,12.39
2023-06-07T07:27:38.753Z,11.93
2023-06-07T07:30:06.733Z,12.08
2023-06-07T07:32:34.857Z,12.10
2023-06-07T07:35:05.738Z,12.44
2023-06-07T07:37:33.312Z,12.31
2023-06-07T07:40:00.440Z,12.04
2023-06-07T07:42:27.939Z,12.00
2023-06-07T07:44:55.053Z,11.72
2023-06-07T07:47:22.576Z,11.84
2023-06-07T07:49:53.226Z,11.83
2023-06-07T07:52:22.622Z,11.99
2023-06-07T07:54:50.113Z,11.98
2023-06-07T07:57:17.572Z,12.06
2023-06-07T07:59:45.217Z,12.02
2023-06-07T08:02:15.506Z,12.11
2023-06-07T08:04:43.327Z,12.07
2023-06-07T08:07:10.719Z,11.63
2023-06-07T08:09:38.125Z,11.82
2023-06-07T08:12:06.981Z,11.89
2023-06-07T08:14:34.401Z,11.88
2023-06-07T08:17:01.583Z,11.79
2023-06-07T08:19:28.888Z,11.95
2023-06-07T08:21:55.972Z,11.71
2023-06-07T08:24:23.102Z,11.96
2023-06-07T08:26:50.982Z,11.45
2023-06-07T08:29:20.009Z,11.57
2023-06-07T08:31:49.234Z,12.06
2023-06-07T08:34:16.482Z,12.41
2023-06-07T08:36:44.008Z,12.16
2023-06-07T08:39:11.147Z,11.38
2023-06-07T08:41:38.331Z,11.81
2023-06-07T08:44:05.806Z,12.07
2023-06-07T08:46:34.026Z,12.15
2023-06-07T08:49:03.486Z,12.17
2023-06-07T08:51:34.657Z,12.11
2023-06-07T08:54:05.964Z,12.43
2023-06-07T08:56:34.051Z,12.96
2023-06-07T08:59:02.298Z,13.41
2023-06-07T09:01:32.198Z,13.82
2023-06-07T09:04:00.666Z,14.07
2023-06-07T09:06:28.248Z,14.00
2023-06-07T09:08:55.497Z,14.06
2023-06-07T09:11:23.517Z,13.86
2023-06-07T09:13:51.097Z,13.86
2023-06-07T09:16:18.482Z,13.94
2023-06-07T09:18:47.264Z,13.42
2023-06-07T09:21:24.487Z,13.49
2023-06-07T09:23:52.194Z,13.77
2023-06-07T09:26:20.138Z,14.37
2023-06-07T09:28:48.204Z,14.61
2023-06-07T09:31:30.070Z,14.97
2023-06-07T09:33:57.476Z,15.21
2023-06-07T09:36:24.677Z,15.53
2023-06-07T09:38:51.854Z,15.56
2023-06-07T09:41:19.334Z,16.11
2023-06-07T09:43:49.102Z,16.21
2023-06-07T09:46:16.710Z,16.25
2023-06-07T09:48:55.223Z,16.49
2023-06-07T09:51:23.278Z,16.21
2023-06-07T09:53:55.871Z,16.59
2023-06-07T09:56:24.095Z,16.60
2023-06-07T09:58:52.687Z,16.17
2023-06-07T10:01:35.115Z,15.67
2023-06-07T10:04:03.759Z,15.69
2023-06-07T10:06:36.117Z,15.75
2023-06-07T10:09:07.269Z,15.90
2023-06-07T10:11:37.584Z,15.73
2023-06-07T10:14:08.793Z,16.12
2023-06-07T10:16:39.002Z,16.63
2023-06-07T10:19:12.754Z,16.08
2023-06-07T10:21:42.128Z,15.75
2023-06-07T10:24:15.199Z,16.10
2023-06-07T10:26:52.401Z,16.33
2023-06-07T10:29:27.379Z,16.16
2023-06-07T10:32:00.593Z,16.23
2023-06-07T10:34:30.798Z,16.74
2023-06-07T10:37:02.668Z,16.82
2023-06-07T10:39:29.964Z,16.97
2023-06-07T10:41:58.998Z,17.04
2023-06-07T10:44:27.821Z,17.22
2023-06-07T10:47:27.952Z,18.17
2023-06-07T10:49:56.542Z,18.66
2023-06-07T10:52:24.088Z,19.09
2023-06-07T10:54:51.355Z,19.26
2023-06-07T10:57:37.704Z,18.98
2023-06-07T11:00:30.315Z,19.21
2023-06-07T11:03:28.505Z,19.57
2023-06-07T11:06:10.207Z,19.86
2023-06-07T11:08:42.004Z,19.90
2023-06-07T11:11:54.556Z,20.33
2023-06-07T11:14:21.839Z,20.56
2023-06-07T11:16:49.074Z,20.64
2023-06-07T11:19:19.961Z,20.68
2023-06-07T11:22:05.914Z,20.79
2023-06-07T11:24:33.732Z,20.76
2023-06-07T11:27:01.327Z,21.06
2023-06-07T11:29:29.416Z,21.34
2023-06-07T11:32:02.149Z,21.59
2023-06-07T11:34:31.604Z,21.71
2023-06-07T11:37:18.114Z,21.45
2023-06-07T11:39:45.292Z,21.41
2023-06-07T11:42:12.508Z,21.28
2023-06-07T11:44:40.422Z,21.63
2023-06-07T11:47:11.425Z,21.86
2023-06-07T11:49:43.230Z,22.21
2023-06-07T11:52:11.541Z,22.22
2023-06-07T11:54:43.450Z,21.95
2023-06-07T11:57:12.226Z,21.68
2023-06-07T11:59:42.213Z,21.75
2023-06-07T12:02:14.273Z,22.25
2023-06-07T12:04:43.712Z,22.64
2023-06-07T12:07:31.951Z,22.40
2023-06-07T12:09:59.143Z,22.43
2023-06-07T12:12:26.769Z,22.32
2023-06-07T12:15:03.081Z,22.77
2023-06-07T12:17:36.023Z,22.83
2023-06-07T12:20:12.729Z,22.86
2023-06-07T12:22:39.951Z,23.16
2023-06-07T12:25:16.704Z,23.02
2023-06-07T12:27:48.379Z,22.60
2023-06-07T12:30:16.135Z,22.79
2023-06-07T12:32:44.865Z,23.08
2023-06-07T12:35:15.216Z,23.54
2023-06-07T12:37:43.987Z,24.22
2023-06-07T12:40:12.022Z,24.52
2023-06-07T12:42:40.321Z,24.87
2023-06-07T12:45:08.953Z,25.07
2023-06-07T12:47:36.537Z,25.20
2023-06-07T12:50:04.953Z,25.49
2023-06-07T12:52:32.086Z,25.58
2023-06-07T12:54:59.877Z,25.69
2023-06-07T12:57:26.943Z,25.85
2023-06-07T12:59:54.083Z,26.43
2023-06-07T13:02:22.288Z,26.43
2023-06-07T13:04:50.084Z,26.65
2023-06-07T13:07:17.261Z,27.00
2023-06-07T13:09:44.392Z,27.04
2023-06-07T13:12:13.820Z,27.31
2023-06-07T13:14:41.004Z,27.29
2023-06-07T13:17:11.066Z,27.63
2023-06-07T13:19:39.609Z,27.60
2023-06-07T13:22:07.144Z,27.44
2023-06-07T13:24:34.603Z,27.51
2023-06-07T13:27:02.178Z,27.76
2023-06-07T13:29:29.311Z,27.96
2023-06-07T13:31:57.666Z,28.13
2023-06-07T13:34:24.785Z,27.57
2023-06-07T13:36:51.798Z,27.44
2023-06-07T13:39:19.889Z,27.13
2023-06-07T13:41:46.936Z,27.07
2023-06-07T13:44:18.650Z,26.84
2023-06-07T13:46:46.803Z,26.52
2023-06-07T13:49:15.304Z,26.30
2023-06-07T13:51:42.947Z,26.29
2023-06-07T13:54:10.539Z,26.09
2023-06-07T13:56:37.737Z,26.42
2023-06-07T13:59:04.888Z,26.49
2023-06-07T14:01:33.240Z,27.17
2023-06-07T14:04:00.697Z,27.84
2023-06-07T14:06:28.444Z,28.13
2023-06-07T14:08:55.843Z,27.95
2023-06-07T14:11:24.861Z,28.15
2023-06-07T14:13:52.107Z,28.37
2023-06-07T14:16:21.064Z,28.33
2023-06-07T14:18:48.222Z,28.27
2023-06-07T14:21:15.446Z,28.09
2023-06-07T14:23:43.145Z,28.50
2023-06-07T14:26:10.380Z,28.40
2023-06-07T14:28:37.530Z,28.39
2023-06-07T14:31:05.009Z,28.59
2023-06-07T14:33:32.152Z,28.51
2023-06-07T14:35:59.290Z,28.31
2023-06-07T14:38:26.746Z,28.26
2023-06-07T14:40:53.942Z,28.57
2023-06-07T14:43:20.990Z,28.58
2023-06-07T14:45:48.548Z,28.48
2023-06-07T14:48:15.883Z,28.70
2023-06-07T14:50:42.994Z,29.02
2023-06-07T14:53:10.864Z,29.27
2023-06-07T14:55:38.086Z,29.97
2023-06-07T14:58:07.091Z,30.10
2023-06-07T15:00:34.957Z,30.69
2023-06-07T15:03:02.233Z,30.99
2023-06-07T15:05:30.576Z,31.08
2023-06-07T15:07:58.164Z,31.20
2023-06-07T15:10:25.195Z,31.34
2023-06-07T15:12:54.206Z,32.17
2023-06-07T15:15:22.640Z,32.66
2023-06-07T15:17:52.068Z,32.43
2023-06-07T15:20:20.209Z,32.35
2023-06-07T15:22:47.331Z,32.66
2023-06-07T15:25:14.422Z,32.62
2023-06-07T15:27:41.687Z,32.64
2023-06-07T15:30:11.004Z,32.57
2023-06-07T15:32:38.319Z,32.70
2023-06-07T15:35:05.851Z,32.86
2023-06-07T15:37:34.036Z,32.89
2023-06-07T15:40:01.139Z,32.60
2023-06-07T15:42:28.539Z,32.28
2023-06-07T15:44:55.793Z,31.89
2023-06-07T15:47:22.845Z,31.71
2023-06-07T15:49:49.958Z,31.78
2023-06-07T15:52:17.027Z,31.88
2023-06-07T15:54:44.123Z,32.05
2023-06-07T15:57:11.756Z,32.15
2023-06-07T15:59:39.033Z,32.33
2023-06-07T16:02:06.649Z,33.17
2023-06-07T16:04:34.661Z,33.90
2023-06-07T16:07:02.151Z,33.96
2023-06-07T16:09:29.418Z,34.41
2023-06-07T16:11:56.512Z,34.19
2023-06-07T16:14:23.676Z,33.78
2023-06-07T16:16:50.928Z,33.75
2023-06-07T16:19:18.169Z,33.71
2023-06-07T16:21:45.619Z,33.81
2023-06-07T16:24:12.998Z,33.96
2023-06-07T16:26:40.450Z,33.91
2023-06-07T16:29:07.725Z,33.92
2023-06-07T16:31:34.968Z,34.05
2023-06-07T16:34:02.548Z,34.15
2023-06-07T16:36:31.579Z,34.48
2023-06-07T16:38:58.681Z,34.63
2023-06-07T16:41:27.237Z,35.10
2023-06-07T16:43:54.726Z,35.23
2023-06-07T16:46:22.201Z,35.30
2023-06-07T16:48:49.599Z,35.46
2023-06-07T16:51:16.861Z,35.48
2023-06-07T16:53:43.953Z,35.83
2023-06-07T16:56:11.229Z,35.90
2023-06-07T16:58:38.588Z,35.86
2023-06-07T17:01:05.752Z,35.94
2023-06-07T17:03:33.163Z,36.05
2023-06-07T17:06:00.791Z,36.17
2023-06-07T17:08:28.149Z,36.31
2023-06-07T17:10:55.595Z,36.51
2023-06-07T17:13:23.340Z,36.54
2023-06-07T17:15:50.959Z,36.72
2023-06-07T17:18:18.302Z,36.74
2023-06-07T17:20:47.592Z,37.09
2023-06-07T17:23:17.469Z,37.06
2023-06-07T17:25:44.657Z,37.01
2023-06-07T17:28:11.898Z,37.15
2023-06-07T17:30:42.222Z,37.62
2023-06-07T17:33:09.673Z,37.64
2023-06-07T17:35:36.829Z,37.75
2023-06-07T17:38:03.921Z,37.92
2023-06-07T17:40:31.665Z,37.90
2023-06-07T17:43:00.128Z,38.02
2023-06-07T17:45:30.561Z,38.17
2023-06-07T17:47:58.130Z,38.23
2023-06-07T17:50:44.829Z,38.18
2023-06-07T17:53:15.221Z,38.47
2023-06-07T17:55:43.767Z,38.44
2023-06-07T17:58:10.932Z,38.54
2023-06-07T18:00:38.447Z,38.68
2023-06-07T18:03:05.661Z,38.52
2023-06-07T18:05:32.827Z,38.60
2023-06-07T18:08:00.301Z,39.05
2023-06-07T18:10:27.502Z,39.05
2023-06-07T18:12:55.064Z,39.18
2023-06-07T18:15:25.035Z,39.47
2023-06-07T18:17:54.105Z,39.66
2023-06-07T18:20:22.247Z,39.89
2023-06-07T18:22:50.558Z,40.35
2023-06-07T18:25:20.031Z,40.68
2023-06-07T18:27:49.173Z,40.76
2023-06-07T18:30:17.054Z,40.94
2023-06-07T18:32:45.701Z,41.21
2023-06-07T18:35:14.671Z,41.53
2023-06-07T18:37:42.423Z,41.54
2023-06-07T18:40:11.650Z,41.71
2023-06-07T18:42:39.227Z,41.93
2023-06-07T18:45:08.022Z,41.99
2023-06-07T18:47:35.417Z,42.05
2023-06-07T18:50:04.589Z,42.03
2023-06-07T18:52:32.269Z,42.16
2023-06-07T18:54:59.390Z,42.25
2023-06-07T18:57:26.607Z,42.26
2023-06-07T18:59:53.665Z,42.45
2023-06-07T19:02:20.901Z,42.50
2023-06-07T19:04:48.396Z,42.72
2023-06-07T19:07:16.240Z,42.83
2023-06-07T19:09:45.147Z,43.07
2023-06-07T19:12:14.179Z,42.93
2023-06-07T19:14:41.516Z,42.99
2023-06-07T19:17:11.860Z,43.15
2023-06-07T19:19:39.290Z,43.26
2023-06-07T19:22:08.509Z,43.43
2023-06-07T19:24:44.008Z,43.56
2023-06-07T19:27:11.849Z,43.77
2023-06-07T19:29:42.019Z,43.74
2023-06-07T19:32:12.511Z,43.83
2023-06-07T19:34:39.657Z,43.92
2023-06-07T19:37:08.167Z,44.20
2023-06-07T19:39:35.646Z,44.24
2023-06-07T19:42:07.806Z,44.22
2023-06-07T19:44:35.219Z,44.37
2023-06-07T19:47:05.111Z,44.43
2023-06-07T19:49:32.286Z,44.61
2023-06-07T19:52:00.216Z,44.82
2023-06-07T19:54:28.046Z,44.84
2023-06-07T19:56:55.170Z,44.92
2023-06-07T19:59:22.679Z,45.00
2023-06-07T20:01:51.066Z,45.26
2023-06-07T20:04:18.300Z,45.09
2023-06-07T20:06:45.666Z,45.31
2023-06-07T20:09:13.777Z,45.53
2023-06-07T20:11:41.082Z,45.63
2023-06-07T20:14:09.629Z,45.73
2023-06-07T20:16:36.950Z,45.83
2023-06-07T20:19:04.870Z,45.80
2023-06-07T20:21:32.160Z,46.10
2023-06-07T20:23:59.686Z,46.13
2023-06-07T20:26:27.013Z,46.13
2023-06-07T20:28:54.146Z,46.46
2023-06-07T20:31:21.631Z,46.56
2023-06-07T20:33:48.729Z,46.67
2023-06-07T20:36:16.985Z,46.99
2023-06-07T20:38:46.117Z,47.13
2023-06-07T20:41:13.202Z,47.38
2023-06-07T20:43:40.797Z,47.45
2023-06-07T20:46:08.262Z,47.61
2023-06-07T20:48:35.926Z,47.91
2023-06-07T20:51:05.052Z,47.89
2023-06-07T20:53:32.860Z,48.17
2023-06-07T20:55:59.879Z,48.40
2023-06-07T20:58:27.295Z,48.36
2023-06-07T21:00:54.648Z,48.58
2023-06-07T21:03:22.604Z,48.80
2023-06-07T21:05:50.622Z,48.88
2023-06-07T21:08:18.083Z,49.24
2023-06-07T21:10:46.474Z,49.64
2023-06-07T21:13:13.691Z,49.72
2023-06-07T21:15:41.409Z,50.09
2023-06-07T21:18:16.385Z,50.30
2023-06-07T21:20:44.381Z,50.42
2023-06-07T21:23:13.178Z,50.50
2023-06-07T21:25:40.613Z,50.78
2023-06-07T21:28:08.266Z,51.02
2023-06-07T21:30:35.392Z,51.37
2023-06-07T21:33:04.955Z,51.46
2023-06-07T21:35:32.559Z,51.58
2023-06-07T21:38:00.225Z,51.73
2023-06-07T21:40:27.498Z,51.89
2023-06-07T21:42:54.723Z,51.96
2023-06-07T21:45:21.963Z,52.00
2023-06-07T21:47:49.770Z,52.40
2023-06-07T21:50:17.728Z,52.69
2023-06-07T21:52:44.920Z,52.73
2023-06-07T21:55:13.030Z,52.83
2023-06-07T21:57:40.526Z,52.85
2023-06-07T22:00:10.292Z,52.94
2023-06-07T22:02:40.819Z,53.25
2023-06-07T22:05:09.378Z,53.47
2023-06-07T22:07:36.621Z,53.59
2023-06-07T22:10:04.247Z,53.73
2023-06-07T22:12:32.352Z,54.03
2023-06-07T22:15:01.938Z,54.31
2023-06-07T22:17:31.313Z,54.31
2023-06-07T22:19:59.231Z,54.39
2023-06-07T22:22:27.129Z,54.65
2023-06-07T22:24:54.333Z,54.94
2023-06-07T22:27:21.707Z,54.98
2023-06-07T22:29:49.482Z,55.12
2023-06-07T22:32:16.708Z,55.53
2023-06-07T22:34:46.228Z,55.59
2023-06-07T22:37:14.316Z,55.55
2023-06-07T22:39:42.498Z,55.88
2023-06-07T22:42:10.166Z,55.84
2023-06-07T22:44:38.459Z,55.96
2023-06-07T22:47:07.473Z,56.25
2023-06-07T22:49:37.545Z,56.17
2023-06-07T22:52:06.073Z,56.36
2023-06-07T22:54:33.211Z,56.55
2023-06-07T22:57:00.486Z,56.48
2023-06-07T22:59:28.135Z,56.77
2023-06-07T23:01:56.802Z,56.79
2023-06-07T23:04:24.684Z,56.94
2023-06-07T23:06:51.805Z,57.16
2023-06-07T23:09:18.982Z,57.11
2023-06-07T23:11:50.584Z,57.14
2023-06-07T23:14:18.776Z,57.23
2023-06-07T23:16:46.391Z,57.30
2023-06-07T23:19:14.216Z,57.33
2023-06-07T23:21:48.354Z,57.48
2023-06-07T23:24:23.046Z,57.61
2023-06-07T23:26:50.649Z,57.80
2023-06-07T23:29:18.014Z,57.92
2023-06-07T23:31:47.373Z,58.08
2023-06-07T23:34:14.455Z,58.11
2023-06-07T23:36:41.652Z,58.19
2023-06-07T23:39:09.103Z,58.27
2023-06-07T23:41:36.676Z,58.38
2023-06-07T23:44:04.131Z,58.43
2023-06-07T23:46:31.970Z,58.58
2023-06-07T23:49:00.064Z,58.70
2023-06-07T23:51:27.215Z,58.73
2023-06-07T23:53:54.440Z,58.85
2023-06-07T23:56:21.706Z,59.05
2023-06-07T23:58:49.617Z,59.02
